createdAt,value
2022-12-06T00:01:41.128Z,2.98
2022-12-06T00:03:48.158Z,3.01
2022-12-06T00:05:51.465Z,3.16
2022-12-06T00:07:54.872Z,3.21
2022-12-06T00:09:58.603Z,3.13
2022-12-06T00:12:02.236Z,3.08
2022-12-06T00:14:07.836Z,3.09
2022-12-06T00:16:13.016Z,3.08
2022-12-06T00:18:16.369Z,2.97
2022-12-06T00:20:21.064Z,2.73
2022-12-06T00:22:24.423Z,3.07
2022-12-06T00:24:27.704Z,3.18
2022-12-06T00:26:31.882Z,3.16
2022-12-06T00:28:35.583Z,3.14
2022-12-06T00:30:38.855Z,3.06
2022-12-06T00:32:42.137Z,3.00
2022-12-06T00:34:45.419Z,3.03
2022-12-06T00:36:50.312Z,3.09
2022-12-06T00:38:53.928Z,3.05
2022-12-06T00:41:00.546Z,3.00
2022-12-06T00:43:03.915Z,3.04
2022-12-06T00:45:08.741Z,3.13
2022-12-06T00:47:12.726Z,3.09
2022-12-06T00:49:16.559Z,3.06
2022-12-06T00:51:22.319Z,3.03
2022-12-06T00:53:27.714Z,3.08
2022-12-06T00:55:31.030Z,2.85
2022-12-06T00:57:34.326Z,3.02
2022-12-06T00:59:37.623Z,3.12
2022-12-06T01:01:42.076Z,3.10
2022-12-06T01:03:46.435Z,3.00
2022-12-06T01:05:51.702Z,2.97
2022-12-06T01:07:55.171Z,2.80
2022-12-06T01:10:00.083Z,2.88
2022-12-06T01:12:03.838Z,2.93
2022-12-06T01:14:07.340Z,2.84
2022-12-06T01:16:13.110Z,2.65
2022-12-06T01:18:16.511Z,2.97
2022-12-06T01:20:20.029Z,2.95
2022-12-06T01:22:23.361Z,2.94
2022-12-06T01:24:26.671Z,2.92
2022-12-06T01:26:33.090Z,3.00
2022-12-06T01:28:36.440Z,3.07
2022-12-06T01:30:40.676Z,3.01
2022-12-06T01:32:44.030Z,3.08
2022-12-06T01:34:52.048Z,3.14
2022-12-06T01:36:55.477Z,3.24
2022-12-06T01:39:00.974Z,3.24
2022-12-06T01:41:04.355Z,3.23
2022-12-06T01:43:30.830Z,3.30
2022-12-06T01:45:34.272Z,3.32
2022-12-06T01:47:41.134Z,3.14
2022-12-06T01:49:48.552Z,3.38
2022-12-06T01:51:59.597Z,3.39
2022-12-06T01:54:05.849Z,3.40
2022-12-06T01:56:09.868Z,3.45
2022-12-06T01:58:20.119Z,3.32
2022-12-06T02:00:23.466Z,3.33
2022-12-06T02:02:27.381Z,3.34
2022-12-06T02:04:32.413Z,3.29
2022-12-06T02:06:36.298Z,3.34
2022-12-06T02:08:40.376Z,3.44
2022-12-06T02:10:43.764Z,3.45
2022-12-06T02:12:49.807Z,3.41
2022-12-06T02:14:56.679Z,3.41
2022-12-06T02:17:13.539Z,3.33
2022-12-06T02:19:49.089Z,3.38
2022-12-06T02:22:01.726Z,3.41
2022-12-06T02:24:49.623Z,3.37
2022-12-06T02:27:03.166Z,3.38
2022-12-06T02:29:49.105Z,3.38
2022-12-06T02:31:58.353Z,3.48
2022-12-06T02:34:08.417Z,3.38
2022-12-06T02:36:18.455Z,3.45
2022-12-06T02:38:30.141Z,3.43
2022-12-06T02:40:39.651Z,3.44
2022-12-06T02:42:48.481Z,3.44
2022-12-06T02:44:54.734Z,3.47
2022-12-06T02:47:02.267Z,3.45
2022-12-06T02:49:08.494Z,3.32
2022-12-06T02:51:17.060Z,3.46
2022-12-06T02:53:23.475Z,3.48
2022-12-06T02:55:28.704Z,3.49
2022-12-06T02:57:41.036Z,3.48
2022-12-06T02:59:52.845Z,3.55
2022-12-06T03:02:00.337Z,3.50
2022-12-06T03:04:46.219Z,3.40
2022-12-06T03:07:01.591Z,3.57
2022-12-06T03:09:19.438Z,3.59
2022-12-06T03:11:22.920Z,3.63
2022-12-06T03:13:34.667Z,3.67
2022-12-06T03:15:47.207Z,3.65
2022-12-06T03:17:56.001Z,3.58
2022-12-06T03:20:05.948Z,3.66
2022-12-06T03:22:12.811Z,3.63
2022-12-06T03:24:17.743Z,3.66
2022-12-06T03:26:26.196Z,3.63
2022-12-06T03:28:31.344Z,3.69
2022-12-06T03:30:36.155Z,3.61
2022-12-06T03:32:42.763Z,3.72
2022-12-06T03:34:51.613Z,3.76
2022-12-06T03:36:57.248Z,3.64
2022-12-06T03:39:05.225Z,3.66
2022-12-06T03:41:09.802Z,3.68
2022-12-06T03:43:13.186Z,3.66
2022-12-06T03:45:17.072Z,3.70
2022-12-06T03:47:28.525Z,3.68
2022-12-06T03:49:38.215Z,3.52
2022-12-06T03:51:45.204Z,3.60
2022-12-06T03:53:51.700Z,3.70
2022-12-06T03:55:55.115Z,3.56
2022-12-06T03:57:58.477Z,3.64
2022-12-06T04:00:02.119Z,3.70
2022-12-06T04:02:15.359Z,3.69
2022-12-06T04:04:18.847Z,3.68
2022-12-06T04:06:22.252Z,3.73
2022-12-06T04:08:27.086Z,3.78
2022-12-06T04:10:30.638Z,3.72
2022-12-06T04:12:53.503Z,3.63
2022-12-06T04:14:56.924Z,3.70
2022-12-06T04:17:20.740Z,3.62
2022-12-06T04:19:27.741Z,3.61
2022-12-06T04:21:48.853Z,3.68
2022-12-06T04:23:53.710Z,3.68
2022-12-06T04:25:57.512Z,3.70
2022-12-06T04:28:19.147Z,3.71
2022-12-06T04:30:40.245Z,3.78
2022-12-06T04:33:01.271Z,3.74
2022-12-06T04:35:23.530Z,3.73
2022-12-06T04:37:44.490Z,3.78
2022-12-06T04:39:49.154Z,3.79
2022-12-06T04:42:10.404Z,3.81
2022-12-06T04:44:13.720Z,3.83
2022-12-06T04:46:17.036Z,3.86
2022-12-06T04:48:20.543Z,3.81
2022-12-06T04:50:23.847Z,3.93
2022-12-06T04:52:31.294Z,3.90
2022-12-06T04:54:38.834Z,3.88
2022-12-06T04:56:43.495Z,3.91
2022-12-06T04:58:47.949Z,3.86
2022-12-06T05:00:51.685Z,3.84
2022-12-06T05:02:55.051Z,3.92
2022-12-06T05:04:58.348Z,3.90
2022-12-06T05:07:01.820Z,3.88
2022-12-06T05:09:06.932Z,3.86
2022-12-06T05:11:10.562Z,3.93
2022-12-06T05:13:15.755Z,3.92
2022-12-06T05:15:19.035Z,3.95
2022-12-06T05:17:22.385Z,3.98
2022-12-06T05:19:25.743Z,3.97
2022-12-06T05:21:29.098Z,3.94
2022-12-06T05:23:32.639Z,4.01
2022-12-06T05:25:35.942Z,3.99
2022-12-06T05:27:39.786Z,4.04
2022-12-06T05:29:44.452Z,3.98
2022-12-06T05:31:47.923Z,3.98
2022-12-06T05:33:52.048Z,3.99
2022-12-06T05:35:55.683Z,3.95
2022-12-06T05:37:58.956Z,4.00
2022-12-06T05:40:02.927Z,3.99
2022-12-06T05:42:06.687Z,4.02
2022-12-06T05:44:11.775Z,3.96
2022-12-06T05:46:16.535Z,4.02
2022-12-06T05:48:20.283Z,3.76
2022-12-06T05:50:23.601Z,4.09
2022-12-06T05:52:26.913Z,4.12
2022-12-06T05:54:30.260Z,4.12
2022-12-06T05:56:33.945Z,4.12
2022-12-06T05:58:38.130Z,4.07
2022-12-06T06:00:41.477Z,3.96
2022-12-06T06:02:46.509Z,3.86
2022-12-06T06:04:49.880Z,4.07
2022-12-06T06:06:53.300Z,3.91
2022-12-06T06:08:56.735Z,4.08
2022-12-06T06:11:00.630Z,4.13
2022-12-06T06:13:04.220Z,4.13
2022-12-06T06:15:08.256Z,4.18
2022-12-06T06:17:11.634Z,4.09
2022-12-06T06:19:16.363Z,4.06
2022-12-06T06:21:20.360Z,4.14
2022-12-06T06:23:24.307Z,4.21
2022-12-06T06:25:27.978Z,4.16
2022-12-06T06:27:34.532Z,4.07
2022-12-06T06:29:42.178Z,4.10
2022-12-06T06:31:48.617Z,4.12
2022-12-06T06:33:52.123Z,4.19
2022-12-06T06:35:56.873Z,4.22
2022-12-06T06:38:00.376Z,4.20
2022-12-06T06:40:04.064Z,4.18
2022-12-06T06:42:07.529Z,4.14
2022-12-06T06:44:10.992Z,4.22
2022-12-06T06:46:14.556Z,4.19
2022-12-06T06:48:18.018Z,4.19
2022-12-06T06:50:21.420Z,4.13
2022-12-06T06:52:28.321Z,4.19
2022-12-06T06:54:31.648Z,4.21
2022-12-06T06:56:34.990Z,4.26
2022-12-06T06:58:38.428Z,4.20
2022-12-06T07:00:42.250Z,4.16
2022-12-06T07:02:45.632Z,4.05
2022-12-06T07:04:49.817Z,4.18
2022-12-06T07:06:53.163Z,4.21
2022-12-06T07:08:57.892Z,4.09
2022-12-06T07:11:01.201Z,4.05
2022-12-06T07:13:04.864Z,4.11
2022-12-06T07:15:09.351Z,4.06
2022-12-06T07:17:12.735Z,4.02
2022-12-06T07:19:16.096Z,3.95
2022-12-06T07:21:19.506Z,4.08
2022-12-06T07:23:24.191Z,4.19
2022-12-06T07:25:28.856Z,4.28
2022-12-06T07:27:35.995Z,5.56
2022-12-06T07:29:39.368Z,4.94
2022-12-06T07:31:42.711Z,4.72
2022-12-06T07:33:47.432Z,4.61
2022-12-06T07:38:16.541Z,4.54
2022-12-06T07:40:26.677Z,4.52
2022-12-06T07:42:53.951Z,4.48
2022-12-06T07:45:03.111Z,4.47
2022-12-06T07:47:06.691Z,4.44
2022-12-06T07:49:10.644Z,4.47
2022-12-06T07:51:14.016Z,4.47
2022-12-06T07:53:17.346Z,4.50
2022-12-06T07:55:20.867Z,4.55
2022-12-06T07:57:24.207Z,4.55
2022-12-06T07:59:29.029Z,4.40
2022-12-06T08:01:32.598Z,4.50
2022-12-06T08:03:36.011Z,4.43
2022-12-06T08:05:39.596Z,4.51
2022-12-06T08:07:42.982Z,4.54
2022-12-06T08:09:46.703Z,4.54
2022-12-06T08:11:50.035Z,4.54
2022-12-06T08:13:53.389Z,4.53
2022-12-06T08:15:58.361Z,4.59
2022-12-06T08:18:02.080Z,4.58
2022-12-06T08:20:06.460Z,4.58
2022-12-06T08:22:09.779Z,4.58
2022-12-06T08:24:13.358Z,4.57
2022-12-06T08:26:18.705Z,4.47
2022-12-06T08:28:22.148Z,4.60
2022-12-06T08:30:25.546Z,4.65
2022-12-06T08:32:30.253Z,4.74
2022-12-06T08:34:34.453Z,4.75
2022-12-06T08:36:39.641Z,4.73
2022-12-06T08:38:43.371Z,4.77
2022-12-06T08:40:46.725Z,4.77
2022-12-06T08:42:50.001Z,4.72
2022-12-06T08:44:54.404Z,4.81
2022-12-06T08:46:59.193Z,4.84
2022-12-06T08:49:04.589Z,4.85
2022-12-06T08:51:07.861Z,4.87
2022-12-06T08:53:11.224Z,4.90
2022-12-06T08:55:14.581Z,4.88
2022-12-06T08:57:18.029Z,4.93
2022-12-06T08:59:21.699Z,4.93
2022-12-06T09:01:31.223Z,4.92
2022-12-06T09:03:37.779Z,4.97
2022-12-06T09:05:42.415Z,5.02
2022-12-06T09:07:45.947Z,5.02
2022-12-06T09:09:49.279Z,5.02
2022-12-06T09:11:52.600Z,4.99
2022-12-06T09:13:55.927Z,5.03
2022-12-06T09:15:59.302Z,4.71
2022-12-06T09:18:02.720Z,5.05
2022-12-06T09:20:08.284Z,5.11
2022-12-06T09:22:13.733Z,5.09
2022-12-06T09:24:19.369Z,5.10
2022-12-06T09:26:22.766Z,5.13
2022-12-06T09:28:26.130Z,5.13
2022-12-06T09:30:29.820Z,5.13
2022-12-06T09:32:33.175Z,5.08
2022-12-06T09:34:36.551Z,5.12
2022-12-06T09:36:44.506Z,5.19
2022-12-06T09:38:54.335Z,5.17
2022-12-06T09:41:07.424Z,5.19
2022-12-06T09:43:28.198Z,5.24
2022-12-06T09:45:54.174Z,5.18
2022-12-06T09:48:29.408Z,5.17
2022-12-06T09:50:44.461Z,4.89
2022-12-06T09:53:15.694Z,5.18
2022-12-06T09:55:33.362Z,5.22
2022-12-06T09:57:43.714Z,5.14
2022-12-06T09:59:58.893Z,5.31
2022-12-06T10:02:21.374Z,5.36
2022-12-06T10:04:46.164Z,5.34
2022-12-06T10:06:54.818Z,5.33
2022-12-06T10:09:13.191Z,5.36
2022-12-06T10:11:30.612Z,5.39
2022-12-06T10:13:52.938Z,5.40
2022-12-06T10:16:11.002Z,5.43
2022-12-06T10:18:29.953Z,5.40
2022-12-06T10:20:42.468Z,5.41
2022-12-06T10:22:59.507Z,5.40
2022-12-06T10:25:11.908Z,5.45
2022-12-06T10:27:23.857Z,5.38
2022-12-06T10:29:40.428Z,5.39
2022-12-06T10:31:52.244Z,5.30
2022-12-06T10:33:58.169Z,5.42
2022-12-06T10:36:04.571Z,5.38
2022-12-06T10:38:23.473Z,5.43
2022-12-06T10:40:32.395Z,5.36
2022-12-06T10:42:41.330Z,5.45
2022-12-06T10:44:49.097Z,5.16
2022-12-06T10:47:06.573Z,5.38
2022-12-06T10:49:18.033Z,5.36
2022-12-06T10:51:26.053Z,5.41
2022-12-06T10:53:35.711Z,5.29
2022-12-06T10:55:44.861Z,5.50
2022-12-06T10:57:57.580Z,5.50
2022-12-06T11:00:10.418Z,5.47
2022-12-06T11:02:27.690Z,5.52
2022-12-06T11:04:35.472Z,5.55
2022-12-06T11:06:44.071Z,5.58
2022-12-06T11:08:52.009Z,5.51
2022-12-06T11:10:57.286Z,5.59
2022-12-06T11:13:11.309Z,5.60
2022-12-06T11:15:18.601Z,5.55
2022-12-06T11:17:26.222Z,5.53
2022-12-06T11:19:34.777Z,5.44
2022-12-06T11:21:44.569Z,5.54
2022-12-06T11:23:54.988Z,5.52
2022-12-06T11:26:07.714Z,5.50
2022-12-06T11:28:22.400Z,5.46
2022-12-06T11:30:26.175Z,5.52
2022-12-06T11:32:29.854Z,5.54
2022-12-06T11:34:39.129Z,5.59
2022-12-06T11:36:43.129Z,5.59
2022-12-06T11:38:46.629Z,5.60
2022-12-06T11:40:51.896Z,5.58
2022-12-06T11:42:56.291Z,5.53
2022-12-06T11:45:07.790Z,5.55
2022-12-06T11:47:15.925Z,5.57
2022-12-06T11:49:27.319Z,5.57
2022-12-06T11:51:30.659Z,5.55
2022-12-06T11:53:40.398Z,5.58
2022-12-06T11:55:47.585Z,5.57
2022-12-06T11:57:53.566Z,5.60
2022-12-06T12:00:15.893Z,5.69
2022-12-06T12:02:32.617Z,5.67
2022-12-06T12:04:39.042Z,5.68
2022-12-06T12:06:42.518Z,5.69
2022-12-06T12:08:58.232Z,5.58
2022-12-06T12:11:04.397Z,5.81
2022-12-06T12:13:40.448Z,5.83
2022-12-06T12:15:52.845Z,5.83
2022-12-06T12:17:58.584Z,5.92
2022-12-06T12:20:06.379Z,5.85
2022-12-06T12:22:23.423Z,5.88
2022-12-06T12:27:32.257Z,5.91
2022-12-06T12:29:35.637Z,5.91
2022-12-06T12:31:48.435Z,5.99
2022-12-06T12:34:20.242Z,6.00
2022-12-06T12:36:28.242Z,6.00
2022-12-06T12:38:39.542Z,5.96
2022-12-06T12:40:45.032Z,5.96
2022-12-06T12:42:49.247Z,5.89
2022-12-06T12:44:57.527Z,5.85
2022-12-06T12:47:03.319Z,5.88
2022-12-06T12:49:28.111Z,5.88
2022-12-06T12:51:35.192Z,5.95
2022-12-06T12:53:41.886Z,6.02
2022-12-06T12:55:46.690Z,5.62
2022-12-06T12:57:51.674Z,5.87
2022-12-06T12:59:55.236Z,5.99
2022-12-06T13:02:06.100Z,6.01
2022-12-06T13:04:19.794Z,6.08
2022-12-06T13:06:31.644Z,5.97
2022-12-06T13:08:38.245Z,5.98
2022-12-06T13:10:46.253Z,6.05
2022-12-06T13:12:53.649Z,6.14
2022-12-06T13:15:02.407Z,6.15
2022-12-06T13:17:09.097Z,6.15
2022-12-06T13:19:17.358Z,6.22
2022-12-06T13:21:23.548Z,6.21
2022-12-06T13:23:32.253Z,6.25
2022-12-06T13:25:36.885Z,6.24
2022-12-06T13:27:44.951Z,6.07
2022-12-06T13:29:55.197Z,6.00
2022-12-06T13:32:01.768Z,6.20
2022-12-06T13:34:13.464Z,6.11
2022-12-06T13:36:17.703Z,6.17
2022-12-06T13:38:30.332Z,6.00
2022-12-06T13:40:56.887Z,6.07
2022-12-06T13:43:00.844Z,6.03
2022-12-06T13:45:06.950Z,6.08
2022-12-06T13:47:51.458Z,6.12
2022-12-06T13:49:56.760Z,6.10
2022-12-06T13:52:00.192Z,6.07
2022-12-06T13:54:33.687Z,6.05
2022-12-06T13:56:41.304Z,6.09
2022-12-06T13:58:52.969Z,6.13
2022-12-06T14:00:58.169Z,6.02
2022-12-06T14:03:03.061Z,6.04
2022-12-06T14:07:58.410Z,6.01
2022-12-06T14:10:14.252Z,5.89
2022-12-06T14:12:22.725Z,6.00
2022-12-06T14:14:26.750Z,5.84
2022-12-06T14:16:35.269Z,5.94
2022-12-06T14:18:41.624Z,5.97
2022-12-06T14:20:45.015Z,6.02
2022-12-06T14:22:48.949Z,5.91
2022-12-06T14:24:58.210Z,5.92
2022-12-06T14:27:07.562Z,5.73
2022-12-06T14:29:22.208Z,5.80
2022-12-06T14:31:39.266Z,5.36
2022-12-06T14:33:42.686Z,5.74
2022-12-06T14:35:51.052Z,5.72
2022-12-06T14:37:56.768Z,5.71
2022-12-06T14:40:11.650Z,5.74
2022-12-06T14:42:41.333Z,5.69
2022-12-06T14:44:53.287Z,5.69
2022-12-06T14:46:59.427Z,5.63
2022-12-06T14:49:20.722Z,5.65
2022-12-06T14:51:25.857Z,5.69
2022-12-06T14:53:30.995Z,5.76
2022-12-06T14:55:36.460Z,5.78
2022-12-06T14:57:46.593Z,5.80
2022-12-06T15:00:27.975Z,5.78
2022-12-06T15:02:25.741Z,5.71
2022-12-06T15:04:36.879Z,5.81
2022-12-06T15:06:53.343Z,5.48
2022-12-06T15:09:13.824Z,5.76
2022-12-06T15:11:48.669Z,5.82
2022-12-06T15:14:13.566Z,5.65
2022-12-06T15:16:18.461Z,5.90
2022-12-06T15:18:25.242Z,5.90
2022-12-06T15:20:28.695Z,5.91
2022-12-06T15:22:32.080Z,5.98
2022-12-06T15:24:35.463Z,5.98
2022-12-06T15:26:38.762Z,5.98
2022-12-06T15:28:42.637Z,5.91
2022-12-06T15:30:46.020Z,5.89
2022-12-06T15:32:50.839Z,5.90
2022-12-06T15:34:54.194Z,5.93
2022-12-06T15:37:30.251Z,5.98
2022-12-06T15:39:22.495Z,6.01
2022-12-06T15:41:27.753Z,6.01
2022-12-06T15:43:33.621Z,6.01
2022-12-06T15:45:36.916Z,6.03
2022-12-06T15:47:40.429Z,6.05
2022-12-06T15:49:45.459Z,6.02
2022-12-06T15:51:50.012Z,6.04
2022-12-06T15:53:55.038Z,6.04
2022-12-06T15:55:58.483Z,6.02
2022-12-06T15:58:01.792Z,6.00
2022-12-06T16:00:06.118Z,5.70
2022-12-06T16:02:15.801Z,5.96
2022-12-06T16:04:21.244Z,5.93
2022-12-06T16:06:27.674Z,5.89
2022-12-06T16:08:31.060Z,5.94
2022-12-06T16:11:09.810Z,5.93
2022-12-06T16:13:15.487Z,5.86
2022-12-06T16:15:18.787Z,5.99
2022-12-06T16:17:22.135Z,6.02
2022-12-06T16:19:45.391Z,5.94
2022-12-06T16:21:54.785Z,5.90
2022-12-06T16:24:16.919Z,5.71
2022-12-06T16:26:20.249Z,5.83
2022-12-06T16:28:24.087Z,6.00
2022-12-06T16:30:34.785Z,6.02
2022-12-06T16:32:38.139Z,5.93
2022-12-06T16:34:41.483Z,6.02
2022-12-06T16:37:00.548Z,5.99
2022-12-06T16:39:06.582Z,5.98
2022-12-06T16:41:16.187Z,5.91
2022-12-06T16:43:19.837Z,5.72
2022-12-06T16:45:23.165Z,5.75
2022-12-06T16:49:48.404Z,5.79
2022-12-06T16:51:52.861Z,5.65
2022-12-06T16:53:57.540Z,5.41
2022-12-06T16:56:00.884Z,5.63
2022-12-06T16:58:04.328Z,5.80
2022-12-06T17:00:08.963Z,5.76
2022-12-06T17:02:27.479Z,5.72
2022-12-06T17:04:31.511Z,5.71
2022-12-06T17:06:35.449Z,5.72
2022-12-06T17:08:38.838Z,5.75
2022-12-06T17:10:43.552Z,5.75
2022-12-06T17:12:49.048Z,5.54
2022-12-06T17:14:52.424Z,5.73
2022-12-06T17:16:57.094Z,5.73
2022-12-06T17:19:00.505Z,5.78
2022-12-06T17:21:07.373Z,5.75
2022-12-06T17:23:11.163Z,5.73
2022-12-06T17:25:16.080Z,5.69
2022-12-06T17:27:20.777Z,5.77
2022-12-06T17:29:24.825Z,5.75
2022-12-06T17:31:29.101Z,5.59
2022-12-06T17:33:32.419Z,5.60
2022-12-06T17:35:36.888Z,5.64
2022-12-06T17:37:40.227Z,5.75
2022-12-06T17:39:43.641Z,5.81
2022-12-06T17:42:04.639Z,5.76
2022-12-06T17:44:10.432Z,5.84
2022-12-06T17:46:13.924Z,5.94
2022-12-06T17:48:17.868Z,5.82
2022-12-06T17:50:21.176Z,5.81
2022-12-06T17:52:24.730Z,5.87
2022-12-06T17:54:28.046Z,5.87
2022-12-06T17:56:33.485Z,5.81
2022-12-06T17:58:36.819Z,5.89
2022-12-06T18:00:41.521Z,5.88
2022-12-06T18:02:45.060Z,5.83
2022-12-06T18:04:48.935Z,5.75
2022-12-06T18:34:06.750Z,5.39
2022-12-06T18:36:10.755Z,5.39
2022-12-06T18:38:14.186Z,5.24
2022-12-06T18:40:17.978Z,5.31
2022-12-06T18:42:21.327Z,5.34
2022-12-06T18:44:25.133Z,5.30
2022-12-06T18:46:28.536Z,5.39
2022-12-06T18:48:32.834Z,5.24
2022-12-06T18:50:40.765Z,5.49
2022-12-06T18:52:44.179Z,5.40
2022-12-06T18:54:47.575Z,5.34
2022-12-06T18:56:50.994Z,5.45
2022-12-06T18:58:54.680Z,5.31
2022-12-06T19:00:58.086Z,5.50
2022-12-06T19:03:01.842Z,5.43
2022-12-06T19:05:06.115Z,5.38
2022-12-06T19:07:10.919Z,5.42
2022-12-06T19:09:16.064Z,5.41
2022-12-06T19:11:19.866Z,5.26
2022-12-06T19:13:23.203Z,5.32
2022-12-06T19:15:26.618Z,5.23
2022-12-06T19:17:30.096Z,5.25
2022-12-06T19:19:35.053Z,5.28
2022-12-06T19:21:38.461Z,5.35
2022-12-06T19:23:43.241Z,5.43
2022-12-06T19:25:46.615Z,5.45
2022-12-06T19:27:49.977Z,5.48
2022-12-06T19:29:53.992Z,5.46
2022-12-06T19:31:57.561Z,5.53
2022-12-06T19:34:01.143Z,5.40
2022-12-06T19:36:06.902Z,5.54
2022-12-06T19:38:10.225Z,5.58
2022-12-06T19:40:15.596Z,5.56
2022-12-06T19:42:36.746Z,5.45
2022-12-06T19:44:40.198Z,5.46
2022-12-06T19:46:45.779Z,5.44
2022-12-06T19:48:49.748Z,5.37
2022-12-06T19:50:53.114Z,5.34
2022-12-06T19:52:56.780Z,5.49
2022-12-06T19:55:00.174Z,5.39
2022-12-06T19:57:05.939Z,5.37
2022-12-06T19:59:12.148Z,5.50
2022-12-06T20:01:17.608Z,5.53
2022-12-06T20:03:21.294Z,5.39
2022-12-06T20:05:25.078Z,5.33
2022-12-06T20:07:28.393Z,5.34
2022-12-06T20:09:33.111Z,5.42
2022-12-06T20:11:55.294Z,5.48
2022-12-06T20:14:01.728Z,5.44
2022-12-06T20:16:06.217Z,5.47
2022-12-06T20:18:09.603Z,5.35
2022-12-06T20:20:12.961Z,5.44
2022-12-06T20:22:18.582Z,5.51
2022-12-06T20:24:22.975Z,5.31
2022-12-06T20:26:26.386Z,5.42
2022-12-06T20:28:29.734Z,5.42
2022-12-06T20:30:34.452Z,5.34
2022-12-06T20:32:38.113Z,5.33
2022-12-06T20:34:41.470Z,5.38
2022-12-06T20:36:45.098Z,5.43
2022-12-06T20:38:48.769Z,5.46
2022-12-06T20:40:52.220Z,5.43
2022-12-06T20:42:55.650Z,5.30
2022-12-06T20:44:59.008Z,4.18
2022-12-06T20:47:03.800Z,5.26
2022-12-06T20:49:07.384Z,5.28
2022-12-06T20:51:13.412Z,5.33
2022-12-06T20:53:16.701Z,5.32
2022-12-06T20:55:20.102Z,5.33
2022-12-06T20:57:23.677Z,5.36
2022-12-06T20:59:27.130Z,5.29
2022-12-06T21:01:33.564Z,5.35
2022-12-06T21:03:38.263Z,5.26
2022-12-06T21:05:45.054Z,5.16
2022-12-06T21:07:48.847Z,5.16
2022-12-06T21:09:52.422Z,5.15
2022-12-06T21:11:55.817Z,5.30
2022-12-06T21:13:59.470Z,5.33
2022-12-06T21:16:04.118Z,5.33
2022-12-06T21:18:07.521Z,5.19
2022-12-06T21:20:13.176Z,5.12
2022-12-06T21:22:16.513Z,5.18
2022-12-06T21:24:21.440Z,5.23
2022-12-06T21:26:24.905Z,5.18
2022-12-06T21:28:28.292Z,5.11
2022-12-06T21:30:33.259Z,5.05
2022-12-06T21:32:36.673Z,5.06
2022-12-06T21:34:46.017Z,5.12
2022-12-06T21:36:51.280Z,4.72
2022-12-06T21:38:54.911Z,4.96
2022-12-06T21:41:01.647Z,5.04
2022-12-06T21:43:05.958Z,5.09
2022-12-06T21:45:09.819Z,5.12
2022-12-06T21:47:13.224Z,5.05
2022-12-06T21:49:16.605Z,5.07
2022-12-06T21:51:20.559Z,5.15
2022-12-06T21:53:25.340Z,5.13
2022-12-06T21:55:28.923Z,5.05
2022-12-06T21:57:34.464Z,5.14
2022-12-06T21:59:37.850Z,5.12
2022-12-06T22:01:41.257Z,5.23
2022-12-06T22:03:44.685Z,5.15
2022-12-06T22:05:50.315Z,5.70
2022-12-06T22:07:53.706Z,5.70
2022-12-06T22:09:58.477Z,5.92
2022-12-06T22:12:01.855Z,6.12
2022-12-06T22:14:05.683Z,6.31
2022-12-06T22:16:11.068Z,6.24
2022-12-06T22:18:14.449Z,5.92
2022-12-06T22:20:17.954Z,5.77
2022-12-06T22:22:21.254Z,5.60
2022-12-06T22:24:25.197Z,5.37
2022-12-06T22:26:31.660Z,5.47
2022-12-06T22:28:35.610Z,5.38
2022-12-06T22:30:38.980Z,5.43
2022-12-06T22:32:42.278Z,5.49
2022-12-06T22:34:45.572Z,5.30
2022-12-06T22:36:48.985Z,5.28
2022-12-06T22:38:53.665Z,5.20
2022-12-06T22:40:57.349Z,5.23
2022-12-06T22:43:02.050Z,5.20
2022-12-06T22:45:06.211Z,5.17
2022-12-06T22:47:09.625Z,5.15
2022-12-06T22:49:17.814Z,5.18
2022-12-06T22:51:24.381Z,5.03
2022-12-06T22:53:27.686Z,5.00
2022-12-06T22:55:31.046Z,5.14
2022-12-06T22:57:34.629Z,5.20
2022-12-06T22:59:39.289Z,5.17
2022-12-06T23:01:42.885Z,5.11
2022-12-06T23:03:47.289Z,5.11
2022-12-06T23:05:57.954Z,5.13
2022-12-06T23:08:01.355Z,5.15
2022-12-06T23:10:05.366Z,5.20
2022-12-06T23:12:10.028Z,5.25
2022-12-06T23:14:13.591Z,5.28
2022-12-06T23:16:21.879Z,5.35
2022-12-06T23:18:25.938Z,5.30
2022-12-06T23:20:29.214Z,5.29
2022-12-06T23:22:33.036Z,5.23
2022-12-06T23:24:36.462Z,5.16
2022-12-06T23:26:42.386Z,5.20
2022-12-06T23:28:46.542Z,5.20
2022-12-06T23:30:49.955Z,5.29
2022-12-06T23:32:54.618Z,5.24
2022-12-06T23:34:57.972Z,5.25
2022-12-06T23:37:01.260Z,5.34
2022-12-06T23:39:06.200Z,5.23
2022-12-06T23:41:11.504Z,5.15
2022-12-06T23:43:14.807Z,5.29
2022-12-06T23:45:18.100Z,5.27
2022-12-06T23:47:21.690Z,5.30
2022-12-06T23:49:26.325Z,5.35
2022-12-06T23:51:33.981Z,5.31
2022-12-06T23:53:37.690Z,5.26
2022-12-06T23:55:40.969Z,5.29
2022-12-06T23:57:44.264Z,5.33
2022-12-06T23:59:47.656Z,5.29
